sensor_id;sensor_type;location;lat;lon;timestamp;P1;durP1;ratioP1;P2;durP2;ratioP2
61200;SDS011;47065;52.898;6.992;2023-11-21T00:01:01;66.32;;;25.10;;
61200;SDS011;47065;52.898;6.992;2023-11-21T00:03:29;57.63;;;22.35;;
61200;SDS011;47065;52.898;6.992;2023-11-21T00:05:55;66.30;;;24.50;;
61200;SDS011;47065;52.898;6.992;2023-11-21T00:08:21;64.90;;;24.75;;
61200;SDS011;47065;52.898;6.992;2023-11-21T00:10:47;64.50;;;24.75;;
61200;SDS011;47065;52.898;6.992;2023-11-21T00:13:13;66.45;;;24.25;;
61200;SDS011;47065;52.898;6.992;2023-11-21T00:15:39;66.32;;;24.33;;
61200;SDS011;47065;52.898;6.992;2023-11-21T00:18:05;65.70;;;24.67;;
61200;SDS011;47065;52.898;6.992;2023-11-21T00:20:31;60.13;;;23.77;;
61200;SDS011;47065;52.898;6.992;2023-11-21T00:22:57;64.22;;;24.33;;
61200;SDS011;47065;52.898;6.992;2023-11-21T00:25:24;55.65;;;23.98;;
61200;SDS011;47065;52.898;6.992;2023-11-21T00:27:50;62.53;;;25.80;;
61200;SDS011;47065;52.898;6.992;2023-11-21T00:30:16;53.47;;;23.35;;
61200;SDS011;47065;52.898;6.992;2023-11-21T00:32:41;68.45;;;25.55;;
61200;SDS011;47065;52.898;6.992;2023-11-21T00:35:08;72.43;;;28.17;;
61200;SDS011;47065;52.898;6.992;2023-11-21T00:37:34;73.65;;;27.85;;
61200;SDS011;47065;52.898;6.992;2023-11-21T00:39:59;73.05;;;27.35;;
61200;SDS011;47065;52.898;6.992;2023-11-21T00:42:28;74.82;;;27.80;;
61200;SDS011;47065;52.898;6.992;2023-11-21T00:44:54;78.60;;;27.20;;
61200;SDS011;47065;52.898;6.992;2023-11-21T00:47:19;72.93;;;28.60;;
61200;SDS011;47065;52.898;6.992;2023-11-21T00:49:45;70.18;;;27.77;;
61200;SDS011;47065;52.898;6.992;2023-11-21T00:52:11;70.28;;;27.15;;
61200;SDS011;47065;52.898;6.992;2023-11-21T00:54:36;71.85;;;28.80;;
61200;SDS011;47065;52.898;6.992;2023-11-21T00:57:02;64.45;;;27.98;;
61200;SDS011;47065;52.898;6.992;2023-11-21T00:59:28;75.78;;;29.17;;
61200;SDS011;47065;52.898;6.992;2023-11-21T01:01:54;72.15;;;27.73;;
61200;SDS011;47065;52.898;6.992;2023-11-21T01:04:19;63.83;;;26.92;;
61200;SDS011;47065;52.898;6.992;2023-11-21T01:06:45;70.45;;;27.23;;
61200;SDS011;47065;52.898;6.992;2023-11-21T01:09:11;65.40;;;28.70;;
61200;SDS011;47065;52.898;6.992;2023-11-21T01:11:37;71.00;;;26.92;;
61200;SDS011;47065;52.898;6.992;2023-11-21T01:14:04;73.07;;;26.33;;
61200;SDS011;47065;52.898;6.992;2023-11-21T01:16:30;61.60;;;27.20;;
61200;SDS011;47065;52.898;6.992;2023-11-21T01:18:57;68.90;;;27.45;;
61200;SDS011;47065;52.898;6.992;2023-11-21T01:21:24;73.55;;;27.25;;
61200;SDS011;47065;52.898;6.992;2023-11-21T01:23:50;62.35;;;27.60;;
61200;SDS011;47065;52.898;6.992;2023-11-21T01:26:15;64.63;;;24.92;;
61200;SDS011;47065;52.898;6.992;2023-11-21T01:28:41;65.28;;;25.92;;
61200;SDS011;47065;52.898;6.992;2023-11-21T01:31:07;67.22;;;27.58;;
61200;SDS011;47065;52.898;6.992;2023-11-21T01:33:32;63.05;;;26.77;;
61200;SDS011;47065;52.898;6.992;2023-11-21T01:35:58;66.45;;;24.83;;
61200;SDS011;47065;52.898;6.992;2023-11-21T01:38:25;57.53;;;24.73;;
61200;SDS011;47065;52.898;6.992;2023-11-21T01:40:51;60.55;;;25.58;;
61200;SDS011;47065;52.898;6.992;2023-11-21T01:43:16;61.88;;;27.42;;
61200;SDS011;47065;52.898;6.992;2023-11-21T01:45:42;65.68;;;27.05;;
61200;SDS011;47065;52.898;6.992;2023-11-21T01:48:10;63.35;;;26.85;;
61200;SDS011;47065;52.898;6.992;2023-11-21T01:50:36;63.13;;;28.45;;
61200;SDS011;47065;52.898;6.992;2023-11-21T01:53:02;55.75;;;25.35;;
61200;SDS011;47065;52.898;6.992;2023-11-21T01:55:28;65.43;;;27.88;;
61200;SDS011;47065;52.898;6.992;2023-11-21T01:57:55;71.63;;;28.33;;
61200;SDS011;47065;52.898;6.992;2023-11-21T02:00:22;63.90;;;25.95;;
61200;SDS011;47065;52.898;6.992;2023-11-21T02:02:49;69.43;;;26.38;;
61200;SDS011;47065;52.898;6.992;2023-11-21T02:05:15;76.57;;;27.50;;
61200;SDS011;47065;52.898;6.992;2023-11-21T02:07:44;66.25;;;24.92;;
61200;SDS011;47065;52.898;6.992;2023-11-21T02:10:10;71.88;;;29.30;;
61200;SDS011;47065;52.898;6.992;2023-11-21T02:12:40;77.40;;;29.83;;
61200;SDS011;47065;52.898;6.992;2023-11-21T02:15:12;73.43;;;26.98;;
61200;SDS011;47065;52.898;6.992;2023-11-21T02:17:51;68.57;;;28.17;;
61200;SDS011;47065;52.898;6.992;2023-11-21T02:20:19;70.68;;;27.88;;
61200;SDS011;47065;52.898;6.992;2023-11-21T02:22:49;74.78;;;29.00;;
61200;SDS011;47065;52.898;6.992;2023-11-21T02:25:21;68.30;;;27.67;;
61200;SDS011;47065;52.898;6.992;2023-11-21T02:27:46;75.95;;;28.15;;
61200;SDS011;47065;52.898;6.992;2023-11-21T02:30:13;73.03;;;27.90;;
61200;SDS011;47065;52.898;6.992;2023-11-21T02:32:41;73.43;;;28.92;;
61200;SDS011;47065;52.898;6.992;2023-11-21T02:35:08;69.03;;;27.60;;
61200;SDS011;47065;52.898;6.992;2023-11-21T02:37:34;66.85;;;27.63;;
61200;SDS011;47065;52.898;6.992;2023-11-21T02:40:00;70.78;;;29.08;;
61200;SDS011;47065;52.898;6.992;2023-11-21T02:42:29;73.18;;;28.58;;
61200;SDS011;47065;52.898;6.992;2023-11-21T02:44:55;78.80;;;29.52;;
61200;SDS011;47065;52.898;6.992;2023-11-21T02:47:22;66.60;;;28.17;;
61200;SDS011;47065;52.898;6.992;2023-11-21T02:49:48;68.25;;;27.55;;
61200;SDS011;47065;52.898;6.992;2023-11-21T02:52:14;63.78;;;28.13;;
61200;SDS011;47065;52.898;6.992;2023-11-21T02:54:40;81.30;;;29.15;;
61200;SDS011;47065;52.898;6.992;2023-11-21T02:57:06;73.65;;;28.67;;
61200;SDS011;47065;52.898;6.992;2023-11-21T02:59:32;69.07;;;26.58;;
61200;SDS011;47065;52.898;6.992;2023-11-21T03:01:58;66.22;;;28.52;;
61200;SDS011;47065;52.898;6.992;2023-11-21T03:04:23;70.85;;;28.33;;
61200;SDS011;47065;52.898;6.992;2023-11-21T03:06:49;64.70;;;28.13;;
61200;SDS011;47065;52.898;6.992;2023-11-21T03:09:14;70.63;;;28.95;;
61200;SDS011;47065;52.898;6.992;2023-11-21T03:11:41;71.47;;;27.95;;
61200;SDS011;47065;52.898;6.992;2023-11-21T03:14:07;63.47;;;27.90;;
61200;SDS011;47065;52.898;6.992;2023-11-21T03:16:32;71.25;;;28.75;;
61200;SDS011;47065;52.898;6.992;2023-11-21T03:18:58;72.78;;;29.48;;
61200;SDS011;47065;52.898;6.992;2023-11-21T03:21:24;61.13;;;26.58;;
61200;SDS011;47065;52.898;6.992;2023-11-21T03:23:51;66.57;;;26.42;;
61200;SDS011;47065;52.898;6.992;2023-11-21T03:26:17;75.43;;;29.02;;
61200;SDS011;47065;52.898;6.992;2023-11-21T03:28:43;82.47;;;29.50;;
61200;SDS011;47065;52.898;6.992;2023-11-21T03:31:09;70.28;;;26.60;;
61200;SDS011;47065;52.898;6.992;2023-11-21T03:33:35;70.55;;;29.25;;
61200;SDS011;47065;52.898;6.992;2023-11-21T03:36:00;68.00;;;28.95;;
61200;SDS011;47065;52.898;6.992;2023-11-21T03:38:26;68.90;;;28.65;;
61200;SDS011;47065;52.898;6.992;2023-11-21T03:40:52;71.88;;;29.60;;
61200;SDS011;47065;52.898;6.992;2023-11-21T03:43:18;67.28;;;28.58;;
61200;SDS011;47065;52.898;6.992;2023-11-21T03:45:44;72.45;;;28.65;;
61200;SDS011;47065;52.898;6.992;2023-11-21T03:48:09;69.68;;;28.25;;
61200;SDS011;47065;52.898;6.992;2023-11-21T03:50:38;73.57;;;27.30;;
61200;SDS011;47065;52.898;6.992;2023-11-21T03:53:03;71.70;;;29.00;;
61200;SDS011;47065;52.898;6.992;2023-11-21T03:55:29;70.22;;;27.70;;
61200;SDS011;47065;52.898;6.992;2023-11-21T03:57:56;71.75;;;28.23;;
61200;SDS011;47065;52.898;6.992;2023-11-21T04:00:23;67.40;;;27.60;;
61200;SDS011;47065;52.898;6.992;2023-11-21T04:02:49;65.30;;;27.85;;
61200;SDS011;47065;52.898;6.992;2023-11-21T04:05:16;61.70;;;24.55;;
61200;SDS011;47065;52.898;6.992;2023-11-21T04:07:42;71.55;;;29.33;;
61200;SDS011;47065;52.898;6.992;2023-11-21T04:10:08;60.00;;;27.00;;
61200;SDS011;47065;52.898;6.992;2023-11-21T04:12:37;71.22;;;27.88;;
61200;SDS011;47065;52.898;6.992;2023-11-21T04:15:03;70.90;;;28.58;;
61200;SDS011;47065;52.898;6.992;2023-11-21T04:17:29;70.25;;;29.55;;
61200;SDS011;47065;52.898;6.992;2023-11-21T04:19:54;73.68;;;26.42;;
61200;SDS011;47065;52.898;6.992;2023-11-21T04:22:20;76.35;;;28.35;;
61200;SDS011;47065;52.898;6.992;2023-11-21T04:24:46;64.40;;;24.83;;
61200;SDS011;47065;52.898;6.992;2023-11-21T04:27:11;81.53;;;29.65;;
61200;SDS011;47065;52.898;6.992;2023-11-21T04:29:38;59.72;;;26.00;;
61200;SDS011;47065;52.898;6.992;2023-11-21T04:32:04;68.88;;;28.00;;
61200;SDS011;47065;52.898;6.992;2023-11-21T04:34:30;65.40;;;27.63;;
61200;SDS011;47065;52.898;6.992;2023-11-21T04:36:56;73.95;;;29.00;;
61200;SDS011;47065;52.898;6.992;2023-11-21T04:39:22;70.82;;;29.55;;
61200;SDS011;47065;52.898;6.992;2023-11-21T04:41:47;81.60;;;29.75;;
61200;SDS011;47065;52.898;6.992;2023-11-21T04:44:13;99.35;;;33.47;;
61200;SDS011;47065;52.898;6.992;2023-11-21T04:46:41;88.40;;;31.45;;
61200;SDS011;47065;52.898;6.992;2023-11-21T04:49:06;95.63;;;32.10;;
61200;SDS011;47065;52.898;6.992;2023-11-21T04:51:32;88.00;;;33.08;;
61200;SDS011;47065;52.898;6.992;2023-11-21T04:53:58;94.63;;;34.88;;
61200;SDS011;47065;52.898;6.992;2023-11-21T04:56:24;80.78;;;32.00;;
61200;SDS011;47065;52.898;6.992;2023-11-21T04:58:49;84.43;;;30.50;;
61200;SDS011;47065;52.898;6.992;2023-11-21T05:01:15;86.57;;;32.67;;
61200;SDS011;47065;52.898;6.992;2023-11-21T05:03:41;93.78;;;33.53;;
61200;SDS011;47065;52.898;6.992;2023-11-21T05:06:09;81.20;;;32.38;;
61200;SDS011;47065;52.898;6.992;2023-11-21T05:08:35;110.97;;;35.88;;
61200;SDS011;47065;52.898;6.992;2023-11-21T05:11:02;98.10;;;32.65;;
61200;SDS011;47065;52.898;6.992;2023-11-21T05:13:28;81.32;;;33.03;;
61200;SDS011;47065;52.898;6.992;2023-11-21T05:15:56;101.88;;;35.17;;
61200;SDS011;47065;52.898;6.992;2023-11-21T05:18:22;100.55;;;36.20;;
61200;SDS011;47065;52.898;6.992;2023-11-21T05:20:48;90.20;;;33.00;;
61200;SDS011;47065;52.898;6.992;2023-11-21T05:23:15;90.75;;;33.35;;
61200;SDS011;47065;52.898;6.992;2023-11-21T05:25:41;90.00;;;31.92;;
61200;SDS011;47065;52.898;6.992;2023-11-21T05:28:06;82.63;;;31.67;;
61200;SDS011;47065;52.898;6.992;2023-11-21T05:30:32;101.40;;;30.83;;
61200;SDS011;47065;52.898;6.992;2023-11-21T05:32:58;77.05;;;29.90;;
61200;SDS011;47065;52.898;6.992;2023-11-21T05:35:23;92.40;;;31.67;;
61200;SDS011;47065;52.898;6.992;2023-11-21T05:37:49;105.05;;;33.65;;
61200;SDS011;47065;52.898;6.992;2023-11-21T05:40:15;77.00;;;29.50;;
61200;SDS011;47065;52.898;6.992;2023-11-21T05:42:41;72.53;;;28.02;;
61200;SDS011;47065;52.898;6.992;2023-11-21T05:45:07;93.47;;;32.25;;
61200;SDS011;47065;52.898;6.992;2023-11-21T05:47:37;96.60;;;35.03;;
61200;SDS011;47065;52.898;6.992;2023-11-21T05:50:03;95.47;;;31.35;;
61200;SDS011;47065;52.898;6.992;2023-11-21T05:52:30;92.00;;;31.98;;
61200;SDS011;47065;52.898;6.992;2023-11-21T05:54:57;83.28;;;30.75;;
61200;SDS011;47065;52.898;6.992;2023-11-21T05:57:23;88.88;;;33.20;;
61200;SDS011;47065;52.898;6.992;2023-11-21T05:59:49;97.65;;;33.88;;
61200;SDS011;47065;52.898;6.992;2023-11-21T06:02:14;115.57;;;36.13;;
61200;SDS011;47065;52.898;6.992;2023-11-21T06:04:40;161.18;;;45.03;;
61200;SDS011;47065;52.898;6.992;2023-11-21T06:07:06;169.30;;;48.38;;
61200;SDS011;47065;52.898;6.992;2023-11-21T06:09:33;171.43;;;47.95;;
61200;SDS011;47065;52.898;6.992;2023-11-21T06:11:59;121.57;;;40.45;;
61200;SDS011;47065;52.898;6.992;2023-11-21T06:14:25;103.95;;;38.33;;
61200;SDS011;47065;52.898;6.992;2023-11-21T06:16:50;128.77;;;40.20;;
61200;SDS011;47065;52.898;6.992;2023-11-21T06:19:17;99.03;;;37.70;;
61200;SDS011;47065;52.898;6.992;2023-11-21T06:21:46;111.35;;;38.42;;
61200;SDS011;47065;52.898;6.992;2023-11-21T06:24:12;113.15;;;40.58;;
61200;SDS011;47065;52.898;6.992;2023-11-21T06:26:38;131.98;;;42.00;;
61200;SDS011;47065;52.898;6.992;2023-11-21T06:29:03;120.40;;;38.92;;
61200;SDS011;47065;52.898;6.992;2023-11-21T06:31:29;133.43;;;41.92;;
61200;SDS011;47065;52.898;6.992;2023-11-21T06:33:55;163.63;;;47.72;;
61200;SDS011;47065;52.898;6.992;2023-11-21T06:36:21;141.63;;;44.55;;
61200;SDS011;47065;52.898;6.992;2023-11-21T06:38:46;117.75;;;40.25;;
61200;SDS011;47065;52.898;6.992;2023-11-21T06:41:12;116.00;;;40.28;;
61200;SDS011;47065;52.898;6.992;2023-11-21T06:43:41;139.93;;;43.33;;
61200;SDS011;47065;52.898;6.992;2023-11-21T06:46:11;146.25;;;43.33;;
61200;SDS011;47065;52.898;6.992;2023-11-21T06:48:37;104.85;;;35.45;;
61200;SDS011;47065;52.898;6.992;2023-11-21T06:51:03;94.35;;;34.15;;
61200;SDS011;47065;52.898;6.992;2023-11-21T06:53:29;93.82;;;34.42;;
61200;SDS011;47065;52.898;6.992;2023-11-21T06:55:55;73.05;;;28.42;;
61200;SDS011;47065;52.898;6.992;2023-11-21T06:58:20;96.53;;;30.23;;
61200;SDS011;47065;52.898;6.992;2023-11-21T07:00:46;78.20;;;28.42;;
61200;SDS011;47065;52.898;6.992;2023-11-21T07:03:13;83.03;;;30.33;;
61200;SDS011;47065;52.898;6.992;2023-11-21T07:05:39;80.20;;;28.27;;
61200;SDS011;47065;52.898;6.992;2023-11-21T07:08:05;90.10;;;29.23;;
61200;SDS011;47065;52.898;6.992;2023-11-21T07:10:32;77.57;;;26.67;;
61200;SDS011;47065;52.898;6.992;2023-11-21T07:12:58;94.03;;;28.20;;
61200;SDS011;47065;52.898;6.992;2023-11-21T07:15:23;80.00;;;28.60;;
61200;SDS011;47065;52.898;6.992;2023-11-21T07:17:51;78.78;;;30.02;;
61200;SDS011;47065;52.898;6.992;2023-11-21T07:20:19;78.43;;;26.75;;
61200;SDS011;47065;52.898;6.992;2023-11-21T07:22:44;86.72;;;28.88;;
61200;SDS011;47065;52.898;6.992;2023-11-21T07:25:10;80.45;;;27.30;;
61200;SDS011;47065;52.898;6.992;2023-11-21T07:27:37;71.78;;;25.40;;
61200;SDS011;47065;52.898;6.992;2023-11-21T07:30:02;78.40;;;27.33;;
61200;SDS011;47065;52.898;6.992;2023-11-21T07:32:30;73.95;;;26.75;;
61200;SDS011;47065;52.898;6.992;2023-11-21T07:34:56;63.58;;;23.75;;
61200;SDS011;47065;52.898;6.992;2023-11-21T07:37:24;72.45;;;24.67;;
61200;SDS011;47065;52.898;6.992;2023-11-21T07:39:51;67.82;;;21.27;;
61200;SDS011;47065;52.898;6.992;2023-11-21T07:42:21;56.88;;;20.63;;
61200;SDS011;47065;52.898;6.992;2023-11-21T07:44:49;53.60;;;21.35;;
61200;SDS011;47065;52.898;6.992;2023-11-21T07:47:15;74.90;;;23.45;;
61200;SDS011;47065;52.898;6.992;2023-11-21T07:49:40;75.13;;;23.70;;
61200;SDS011;47065;52.898;6.992;2023-11-21T07:52:08;94.18;;;26.95;;
61200;SDS011;47065;52.898;6.992;2023-11-21T07:54:35;83.10;;;26.52;;
61200;SDS011;47065;52.898;6.992;2023-11-21T07:57:00;92.22;;;28.08;;
61200;SDS011;47065;52.898;6.992;2023-11-21T07:59:26;112.80;;;31.05;;
61200;SDS011;47065;52.898;6.992;2023-11-21T08:01:52;124.57;;;33.75;;
61200;SDS011;47065;52.898;6.992;2023-11-21T08:04:18;77.75;;;23.95;;
61200;SDS011;47065;52.898;6.992;2023-11-21T08:06:43;119.25;;;30.45;;
61200;SDS011;47065;52.898;6.992;2023-11-21T08:09:09;108.13;;;29.48;;
61200;SDS011;47065;52.898;6.992;2023-11-21T08:11:37;108.80;;;29.65;;
61200;SDS011;47065;52.898;6.992;2023-11-21T08:14:04;111.38;;;30.63;;
61200;SDS011;47065;52.898;6.992;2023-11-21T08:16:30;105.68;;;29.75;;
61200;SDS011;47065;52.898;6.992;2023-11-21T08:18:55;119.78;;;32.42;;
61200;SDS011;47065;52.898;6.992;2023-11-21T08:21:21;144.63;;;34.10;;
61200;SDS011;47065;52.898;6.992;2023-11-21T08:23:49;148.75;;;37.80;;
61200;SDS011;47065;52.898;6.992;2023-11-21T08:26:19;126.25;;;32.05;;
61200;SDS011;47065;52.898;6.992;2023-11-21T08:28:45;117.95;;;30.48;;
61200;SDS011;47065;52.898;6.992;2023-11-21T08:31:12;100.20;;;30.58;;
61200;SDS011;47065;52.898;6.992;2023-11-21T08:33:38;95.63;;;27.92;;
61200;SDS011;47065;52.898;6.992;2023-11-21T08:36:07;99.20;;;31.55;;
61200;SDS011;47065;52.898;6.992;2023-11-21T08:38:33;105.88;;;28.70;;
61200;SDS011;47065;52.898;6.992;2023-11-21T08:41:06;89.90;;;27.85;;
61200;SDS011;47065;52.898;6.992;2023-11-21T08:43:36;88.50;;;27.73;;
61200;SDS011;47065;52.898;6.992;2023-11-21T08:46:07;84.75;;;28.15;;
61200;SDS011;47065;52.898;6.992;2023-11-21T08:48:36;86.32;;;27.30;;
61200;SDS011;47065;52.898;6.992;2023-11-21T08:51:03;99.07;;;29.02;;
61200;SDS011;47065;52.898;6.992;2023-11-21T08:53:29;108.40;;;32.42;;
61200;SDS011;47065;52.898;6.992;2023-11-21T08:55:56;94.65;;;31.95;;
61200;SDS011;47065;52.898;6.992;2023-11-21T08:58:22;94.38;;;31.25;;
61200;SDS011;47065;52.898;6.992;2023-11-21T09:00:47;88.10;;;29.98;;
61200;SDS011;47065;52.898;6.992;2023-11-21T09:03:13;91.50;;;31.23;;
61200;SDS011;47065;52.898;6.992;2023-11-21T09:05:39;99.35;;;33.53;;
61200;SDS011;47065;52.898;6.992;2023-11-21T09:08:05;100.47;;;33.55;;
61200;SDS011;47065;52.898;6.992;2023-11-21T09:10:31;106.50;;;34.67;;
61200;SDS011;47065;52.898;6.992;2023-11-21T09:13:00;109.47;;;36.55;;
61200;SDS011;47065;52.898;6.992;2023-11-21T09:15:26;131.15;;;38.60;;
61200;SDS011;47065;52.898;6.992;2023-11-21T09:17:52;107.00;;;36.58;;
61200;SDS011;47065;52.898;6.992;2023-11-21T09:20:18;106.35;;;35.78;;
61200;SDS011;47065;52.898;6.992;2023-11-21T09:22:47;96.28;;;36.15;;
61200;SDS011;47065;52.898;6.992;2023-11-21T09:25:14;96.85;;;34.33;;
61200;SDS011;47065;52.898;6.992;2023-11-21T09:27:40;88.97;;;34.10;;
61200;SDS011;47065;52.898;6.992;2023-11-21T09:30:06;101.20;;;35.72;;
61200;SDS011;47065;52.898;6.992;2023-11-21T09:32:35;83.38;;;33.08;;
61200;SDS011;47065;52.898;6.992;2023-11-21T09:35:03;73.88;;;29.25;;
61200;SDS011;47065;52.898;6.992;2023-11-21T09:37:30;76.50;;;26.98;;
61200;SDS011;47065;52.898;6.992;2023-11-21T09:39:55;64.63;;;25.95;;
61200;SDS011;47065;52.898;6.992;2023-11-21T09:47:38;55.55;;;23.02;;
61200;SDS011;47065;52.898;6.992;2023-11-21T09:50:04;42.25;;;19.20;;
61200;SDS011;47065;52.898;6.992;2023-11-21T09:55:35;47.17;;;20.58;;
61200;SDS011;47065;52.898;6.992;2023-11-21T09:58:02;44.28;;;18.83;;
61200;SDS011;47065;52.898;6.992;2023-11-21T10:00:28;38.63;;;19.58;;
61200;SDS011;47065;52.898;6.992;2023-11-21T10:02:58;42.55;;;18.98;;
61200;SDS011;47065;52.898;6.992;2023-11-21T10:05:24;36.60;;;18.60;;
61200;SDS011;47065;52.898;6.992;2023-11-21T10:07:50;31.33;;;16.92;;
61200;SDS011;47065;52.898;6.992;2023-11-21T10:10:19;32.33;;;17.98;;
61200;SDS011;47065;52.898;6.992;2023-11-21T10:12:49;29.83;;;16.17;;
61200;SDS011;47065;52.898;6.992;2023-11-21T10:15:20;25.77;;;14.52;;
61200;SDS011;47065;52.898;6.992;2023-11-21T10:17:48;19.52;;;12.32;;
61200;SDS011;47065;52.898;6.992;2023-11-21T10:20:14;15.68;;;10.82;;
61200;SDS011;47065;52.898;6.992;2023-11-21T10:22:41;16.55;;;10.90;;
61200;SDS011;47065;52.898;6.992;2023-11-21T10:25:08;16.17;;;9.90;;
61200;SDS011;47065;52.898;6.992;2023-11-21T10:27:34;17.17;;;11.02;;
61200;SDS011;47065;52.898;6.992;2023-11-21T10:30:02;17.08;;;9.55;;
61200;SDS011;47065;52.898;6.992;2023-11-21T10:32:29;15.82;;;10.30;;
61200;SDS011;47065;52.898;6.992;2023-11-21T10:34:58;15.88;;;9.63;;
61200;SDS011;47065;52.898;6.992;2023-11-21T10:37:31;13.45;;;9.50;;
61200;SDS011;47065;52.898;6.992;2023-11-21T10:40:01;14.57;;;9.88;;
61200;SDS011;47065;52.898;6.992;2023-11-21T10:42:27;14.30;;;10.10;;
61200;SDS011;47065;52.898;6.992;2023-11-21T10:44:53;13.95;;;9.73;;
61200;SDS011;47065;52.898;6.992;2023-11-21T10:47:19;14.90;;;10.35;;
61200;SDS011;47065;52.898;6.992;2023-11-21T10:49:51;13.07;;;9.38;;
61200;SDS011;47065;52.898;6.992;2023-11-21T10:52:18;13.70;;;9.10;;
61200;SDS011;47065;52.898;6.992;2023-11-21T10:54:45;14.20;;;8.25;;
61200;SDS011;47065;52.898;6.992;2023-11-21T10:57:11;15.65;;;8.45;;
61200;SDS011;47065;52.898;6.992;2023-11-21T10:59:42;12.20;;;8.45;;
61200;SDS011;47065;52.898;6.992;2023-11-21T11:02:33;11.63;;;8.88;;
61200;SDS011;47065;52.898;6.992;2023-11-21T11:04:59;13.02;;;8.82;;
61200;SDS011;47065;52.898;6.992;2023-11-21T11:07:26;13.82;;;9.70;;
61200;SDS011;47065;52.898;6.992;2023-11-21T11:09:53;17.05;;;10.13;;
61200;SDS011;47065;52.898;6.992;2023-11-21T11:12:20;15.27;;;9.82;;
61200;SDS011;47065;52.898;6.992;2023-11-21T11:14:46;12.50;;;8.80;;
61200;SDS011;47065;52.898;6.992;2023-11-21T11:17:17;13.40;;;8.80;;
61200;SDS011;47065;52.898;6.992;2023-11-21T11:19:45;15.40;;;9.75;;
61200;SDS011;47065;52.898;6.992;2023-11-21T11:33:08;11.02;;;7.50;;
61200;SDS011;47065;52.898;6.992;2023-11-21T11:35:50;11.35;;;7.53;;
61200;SDS011;47065;52.898;6.992;2023-11-21T11:38:22;11.07;;;7.70;;
61200;SDS011;47065;52.898;6.992;2023-11-21T11:40:48;11.73;;;8.85;;
61200;SDS011;47065;52.898;6.992;2023-11-21T11:43:24;12.00;;;7.97;;
61200;SDS011;47065;52.898;6.992;2023-11-21T11:45:51;12.90;;;7.90;;
61200;SDS011;47065;52.898;6.992;2023-11-21T11:48:18;12.20;;;8.68;;
61200;SDS011;47065;52.898;6.992;2023-11-21T11:51:05;12.15;;;7.97;;
61200;SDS011;47065;52.898;6.992;2023-11-21T11:53:38;12.70;;;7.18;;
61200;SDS011;47065;52.898;6.992;2023-11-21T11:56:25;11.65;;;7.90;;
61200;SDS011;47065;52.898;6.992;2023-11-21T11:58:57;14.45;;;8.02;;
61200;SDS011;47065;52.898;6.992;2023-11-21T12:01:24;13.27;;;8.40;;
61200;SDS011;47065;52.898;6.992;2023-11-21T12:06:56;11.98;;;8.15;;
61200;SDS011;47065;52.898;6.992;2023-11-21T12:09:25;13.98;;;7.78;;
61200;SDS011;47065;52.898;6.992;2023-11-21T12:11:51;13.20;;;8.32;;
61200;SDS011;47065;52.898;6.992;2023-11-21T12:14:18;13.02;;;8.25;;
61200;SDS011;47065;52.898;6.992;2023-11-21T12:16:44;13.82;;;8.52;;
61200;SDS011;47065;52.898;6.992;2023-11-21T12:19:10;10.50;;;6.28;;
61200;SDS011;47065;52.898;6.992;2023-11-21T12:21:37;13.20;;;6.55;;
61200;SDS011;47065;52.898;6.992;2023-11-21T12:24:03;9.20;;;6.72;;
61200;SDS011;47065;52.898;6.992;2023-11-21T12:26:29;10.10;;;6.43;;
61200;SDS011;47065;52.898;6.992;2023-11-21T12:28:55;10.20;;;6.60;;
61200;SDS011;47065;52.898;6.992;2023-11-21T12:31:21;9.07;;;7.32;;
61200;SDS011;47065;52.898;6.992;2023-11-21T12:33:47;10.95;;;7.22;;
61200;SDS011;47065;52.898;6.992;2023-11-21T12:36:13;8.25;;;6.28;;
61200;SDS011;47065;52.898;6.992;2023-11-21T12:38:39;9.65;;;6.75;;
61200;SDS011;47065;52.898;6.992;2023-11-21T12:41:05;8.35;;;6.28;;
61200;SDS011;47065;52.898;6.992;2023-11-21T12:43:31;11.90;;;6.93;;
61200;SDS011;47065;52.898;6.992;2023-11-21T12:46:07;11.60;;;7.82;;
61200;SDS011;47065;52.898;6.992;2023-11-21T12:48:38;10.10;;;6.82;;
61200;SDS011;47065;52.898;6.992;2023-11-21T12:51:05;11.80;;;6.88;;
61200;SDS011;47065;52.898;6.992;2023-11-21T12:53:31;10.15;;;7.13;;
61200;SDS011;47065;52.898;6.992;2023-11-21T12:56:06;9.27;;;7.07;;
61200;SDS011;47065;52.898;6.992;2023-11-21T12:58:34;10.55;;;7.57;;
61200;SDS011;47065;52.898;6.992;2023-11-21T13:01:00;12.25;;;7.97;;
61200;SDS011;47065;52.898;6.992;2023-11-21T13:03:29;11.50;;;8.15;;
61200;SDS011;47065;52.898;6.992;2023-11-21T13:05:55;12.88;;;6.72;;
61200;SDS011;47065;52.898;6.992;2023-11-21T13:08:22;15.27;;;8.43;;
61200;SDS011;47065;52.898;6.992;2023-11-21T13:10:49;16.17;;;9.80;;
61200;SDS011;47065;52.898;6.992;2023-11-21T13:13:21;10.52;;;7.65;;
61200;SDS011;47065;52.898;6.992;2023-11-21T13:15:53;10.48;;;8.30;;
61200;SDS011;47065;52.898;6.992;2023-11-21T13:18:23;12.82;;;8.75;;
61200;SDS011;47065;52.898;6.992;2023-11-21T13:20:49;16.95;;;8.95;;
61200;SDS011;47065;52.898;6.992;2023-11-21T13:23:15;14.32;;;9.00;;
61200;SDS011;47065;52.898;6.992;2023-11-21T13:25:41;14.30;;;8.68;;
61200;SDS011;47065;52.898;6.992;2023-11-21T13:28:10;13.52;;;8.10;;
61200;SDS011;47065;52.898;6.992;2023-11-21T13:30:36;13.98;;;8.70;;
61200;SDS011;47065;52.898;6.992;2023-11-21T13:33:04;12.68;;;8.55;;
61200;SDS011;47065;52.898;6.992;2023-11-21T13:35:36;11.73;;;8.32;;
61200;SDS011;47065;52.898;6.992;2023-11-21T13:38:13;12.52;;;8.13;;
61200;SDS011;47065;52.898;6.992;2023-11-21T13:40:47;10.43;;;7.75;;
61200;SDS011;47065;52.898;6.992;2023-11-21T13:43:18;12.90;;;8.00;;
61200;SDS011;47065;52.898;6.992;2023-11-21T13:45:47;11.40;;;8.32;;
61200;SDS011;47065;52.898;6.992;2023-11-21T13:48:23;13.55;;;8.18;;
61200;SDS011;47065;52.898;6.992;2023-11-21T13:51:05;14.88;;;8.25;;
61200;SDS011;47065;52.898;6.992;2023-11-21T13:53:45;12.95;;;8.48;;
61200;SDS011;47065;52.898;6.992;2023-11-21T13:56:18;16.30;;;8.55;;
61200;SDS011;47065;52.898;6.992;2023-11-21T13:58:53;12.73;;;7.78;;
61200;SDS011;47065;52.898;6.992;2023-11-21T14:01:23;11.95;;;8.65;;
61200;SDS011;47065;52.898;6.992;2023-11-21T14:04:09;10.23;;;8.13;;
61200;SDS011;47065;52.898;6.992;2023-11-21T14:06:47;13.48;;;8.23;;
61200;SDS011;47065;52.898;6.992;2023-11-21T14:09:19;13.32;;;9.32;;
61200;SDS011;47065;52.898;6.992;2023-11-21T14:11:53;10.30;;;8.18;;
61200;SDS011;47065;52.898;6.992;2023-11-21T14:14:21;12.98;;;8.77;;
61200;SDS011;47065;52.898;6.992;2023-11-21T14:16:53;13.13;;;8.88;;
61200;SDS011;47065;52.898;6.992;2023-11-21T14:19:19;12.73;;;7.85;;
61200;SDS011;47065;52.898;6.992;2023-11-21T14:21:46;11.15;;;8.63;;
61200;SDS011;47065;52.898;6.992;2023-11-21T14:24:14;11.15;;;8.02;;
61200;SDS011;47065;52.898;6.992;2023-11-21T14:26:42;10.88;;;7.95;;
61200;SDS011;47065;52.898;6.992;2023-11-21T14:29:11;10.02;;;6.82;;
61200;SDS011;47065;52.898;6.992;2023-11-21T14:31:40;9.48;;;6.60;;
61200;SDS011;47065;52.898;6.992;2023-11-21T14:34:06;9.02;;;6.80;;
61200;SDS011;47065;52.898;6.992;2023-11-21T14:36:35;10.93;;;7.57;;
61200;SDS011;47065;52.898;6.992;2023-11-21T14:39:04;9.98;;;7.53;;
61200;SDS011;47065;52.898;6.992;2023-11-21T14:41:34;9.43;;;6.82;;
61200;SDS011;47065;52.898;6.992;2023-11-21T14:44:01;9.07;;;5.93;;
61200;SDS011;47065;52.898;6.992;2023-11-21T14:46:28;9.98;;;6.13;;